createdAt,value
2019-03-21T04:46:44.639Z,43.60
2019-03-21T04:49:18.594Z,43.40
2019-03-21T04:51:46.474Z,43.10
2019-03-21T04:54:15.380Z,42.80
2019-03-21T04:56:45.261Z,42.80
2019-03-21T04:59:13.167Z,43.40
2019-03-21T05:01:41.127Z,43.00
2019-03-21T05:04:09.998Z,42.70
2019-03-21T05:06:37.899Z,43.00
2019-03-21T05:09:07.723Z,43.30
2019-03-21T05:11:35.630Z,43.60
2019-03-21T05:14:03.520Z,43.30
2019-03-21T05:16:32.320Z,42.80
2019-03-21T05:19:00.196Z,43.10
2019-03-21T05:21:28.092Z,43.10
2019-03-21T05:23:56.916Z,42.70
2019-03-21T05:26:25.811Z,43.50
2019-03-21T05:28:53.709Z,42.40
2019-03-21T05:31:23.431Z,42.30
2019-03-21T05:33:51.323Z,43.00
2019-03-21T05:36:19.218Z,42.70
2019-03-21T05:38:47.118Z,42.60
2019-03-21T05:41:15.020Z,42.70
2019-03-21T05:43:47.394Z,42.30
2019-03-21T05:46:26.129Z,42.10
2019-03-21T05:48:45.323Z,42.00
2019-03-21T05:51:13.309Z,42.00
2019-03-21T05:53:47.237Z,42.30
2019-03-21T05:56:16.068Z,41.50
2019-03-21T05:58:45.920Z,41.10
2019-03-21T06:01:15.797Z,40.70
2019-03-21T06:03:46.272Z,40.70
2019-03-21T06:06:28.025Z,40.50
2019-03-21T06:08:55.998Z,40.90
2019-03-21T06:11:23.885Z,41.30
2019-03-21T06:13:53.816Z,40.80
2019-03-21T06:16:22.132Z,40.60
2019-03-21T06:18:54.955Z,41.10
2019-03-21T06:21:30.275Z,40.40
2019-03-21T06:23:59.802Z,40.20
2019-03-21T06:26:39.128Z,40.40
2019-03-21T06:29:07.000Z,40.30
2019-03-21T06:31:35.875Z,40.70
2019-03-21T06:34:09.753Z,40.40
2019-03-21T06:36:37.653Z,40.70
2019-03-21T06:39:09.671Z,40.30
2019-03-21T06:41:38.507Z,40.30
2019-03-21T06:44:06.392Z,40.30
2019-03-21T06:46:48.944Z,40.50
2019-03-21T06:49:07.941Z,39.90
2019-03-21T06:51:35.828Z,39.50
2019-03-21T06:54:03.748Z,39.90
2019-03-21T06:56:31.744Z,40.10
2019-03-21T06:58:59.633Z,40.00
2019-03-21T07:01:28.512Z,39.90
2019-03-21T07:04:06.602Z,39.60
2019-03-21T07:06:26.001Z,39.90
2019-03-21T07:08:53.932Z,40.00
2019-03-21T07:11:21.837Z,40.50
2019-03-21T07:13:49.788Z,40.20
2019-03-21T07:16:17.718Z,40.50
2019-03-21T07:18:45.647Z,39.90
2019-03-21T07:21:14.575Z,41.20
2019-03-21T07:23:42.465Z,40.40
2019-03-21T07:26:10.443Z,40.60
2019-03-21T07:28:38.666Z,40.60
2019-03-21T07:31:06.722Z,40.70
2019-03-21T07:33:34.720Z,40.30
2019-03-21T07:36:02.642Z,40.20
2019-03-21T07:38:31.554Z,40.60
2019-03-21T07:40:59.495Z,40.10
2019-03-21T07:43:27.388Z,40.80
2019-03-21T07:45:56.246Z,40.00
2019-03-21T07:48:24.134Z,40.20
2019-03-21T07:50:52.037Z,40.30
2019-03-21T07:53:22.052Z,40.20
2019-03-21T07:55:49.536Z,40.50
2019-03-21T07:58:17.448Z,40.40
2019-03-21T08:00:45.449Z,41.30
2019-03-21T08:03:13.408Z,41.00
2019-03-21T08:05:41.328Z,40.20
2019-03-21T08:08:09.232Z,40.20
2019-03-21T08:10:37.223Z,40.60
2019-03-21T08:13:05.137Z,40.50
2019-03-21T08:15:33.104Z,41.00
2019-03-21T08:18:01.002Z,40.10
2019-03-21T08:20:28.884Z,39.90
2019-03-21T08:22:56.784Z,40.40
2019-03-21T08:25:25.589Z,40.20
2019-03-21T08:27:53.484Z,38.90
2019-03-21T08:30:23.969Z,39.70
2019-03-21T08:32:51.864Z,40.60
2019-03-21T08:35:19.749Z,40.00
2019-03-21T08:37:47.644Z,39.80
2019-03-21T08:40:15.567Z,40.20
2019-03-21T08:42:43.458Z,39.80
2019-03-21T08:45:11.375Z,39.60
2019-03-21T08:47:39.284Z,39.40
2019-03-21T08:50:08.356Z,39.80
2019-03-21T08:52:36.280Z,39.70
2019-03-21T08:55:05.884Z,39.50
2019-03-21T08:57:33.806Z,39.30
2019-03-21T09:00:01.698Z,39.60
2019-03-21T09:02:29.636Z,39.40
2019-03-21T09:04:59.648Z,39.20
2019-03-21T09:07:27.181Z,39.10
2019-03-21T09:09:55.973Z,39.10
2019-03-21T09:12:23.912Z,38.80
2019-03-21T09:14:52.748Z,38.80
2019-03-21T09:17:20.685Z,39.30
2019-03-21T09:19:48.637Z,39.70
2019-03-21T09:22:16.535Z,38.50
2019-03-21T09:24:44.436Z,38.60
2019-03-21T09:27:12.353Z,38.50
2019-03-21T09:29:52.859Z,37.70
2019-03-21T09:32:10.863Z,37.80
2019-03-21T09:34:38.861Z,38.10
2019-03-21T09:37:06.767Z,38.00
2019-03-21T09:39:34.704Z,37.60
2019-03-21T09:42:02.633Z,38.10
2019-03-21T09:44:31.435Z,38.00
2019-03-21T09:46:59.350Z,38.60
2019-03-21T09:49:27.288Z,36.70
2019-03-21T09:51:56.160Z,37.60
2019-03-21T09:54:24.140Z,37.10
2019-03-21T09:56:53.061Z,36.30
2019-03-21T09:59:20.973Z,37.10
2019-03-21T10:01:48.864Z,36.00
2019-03-21T10:04:16.742Z,37.10
2019-03-21T10:06:44.728Z,37.00
2019-03-21T10:09:12.708Z,36.30
2019-03-21T10:11:40.619Z,36.20
2019-03-21T10:14:08.564Z,36.60
2019-03-21T10:16:36.455Z,36.60
2019-03-21T10:19:04.344Z,36.80
2019-03-21T10:21:42.809Z,37.10
2019-03-21T10:24:01.883Z,36.30
2019-03-21T10:26:29.776Z,35.40
2019-03-21T10:28:57.694Z,35.70
2019-03-21T10:31:26.537Z,35.50
2019-03-21T10:33:54.529Z,35.40
2019-03-21T10:36:23.378Z,35.80
2019-03-21T10:38:51.296Z,35.60
2019-03-21T10:41:19.199Z,36.10
2019-03-21T10:43:47.111Z,35.10
2019-03-21T10:46:15.030Z,35.80
2019-03-21T10:48:43.003Z,35.40
2019-03-21T10:51:11.099Z,35.50
2019-03-21T10:53:39.009Z,34.70
2019-03-21T10:56:07.892Z,35.50
2019-03-21T10:58:36.757Z,35.30
2019-03-21T11:01:04.635Z,35.40
2019-03-21T11:03:32.539Z,34.90
2019-03-21T11:06:00.441Z,35.10
2019-03-21T11:08:29.348Z,36.00
2019-03-21T11:10:57.231Z,34.80
2019-03-21T11:13:25.153Z,35.00
2019-03-21T11:15:56.964Z,34.80
2019-03-21T11:18:36.241Z,34.20
2019-03-21T11:21:02.348Z,34.00
2019-03-21T11:23:30.251Z,34.70
2019-03-21T11:25:58.176Z,34.70
2019-03-21T11:28:26.115Z,34.90
2019-03-21T11:30:53.999Z,35.10
2019-03-21T11:33:21.904Z,35.20
2019-03-21T11:35:49.862Z,33.50
2019-03-21T11:38:17.775Z,33.60
2019-03-21T11:40:48.383Z,33.50
2019-03-21T11:43:16.299Z,33.70
2019-03-21T11:45:44.194Z,33.30
2019-03-21T11:48:12.108Z,34.00
2019-03-21T11:50:40.016Z,34.00
2019-03-21T11:53:07.963Z,33.90
2019-03-21T11:55:35.891Z,33.10
2019-03-21T11:58:03.808Z,34.30
2019-03-21T12:00:42.965Z,33.60
2019-03-21T12:03:04.473Z,34.10
2019-03-21T12:05:32.598Z,33.90
2019-03-21T12:08:00.537Z,34.10
2019-03-21T12:10:28.428Z,33.50
2019-03-21T12:12:57.391Z,34.40
2019-03-21T12:15:28.972Z,32.90
2019-03-21T12:17:58.771Z,33.30
2019-03-21T12:20:28.472Z,33.40
2019-03-21T12:22:57.263Z,33.30
2019-03-21T12:25:27.186Z,33.60
2019-03-21T12:27:55.122Z,32.70
2019-03-21T12:30:30.342Z,32.00
2019-03-21T12:32:59.192Z,32.60
2019-03-21T12:35:28.081Z,32.60
2019-03-21T12:37:56.958Z,31.60
2019-03-21T12:40:25.861Z,32.20
2019-03-21T12:42:53.820Z,31.20
2019-03-21T12:45:21.694Z,31.00
2019-03-21T12:47:49.613Z,30.50
2019-03-21T12:50:17.507Z,30.40
2019-03-21T12:52:45.391Z,31.30
2019-03-21T12:55:13.286Z,32.20
2019-03-21T12:57:42.152Z,31.20
2019-03-21T13:00:12.200Z,30.90
2019-03-21T13:02:45.967Z,30.40
2019-03-21T13:05:27.758Z,31.30
2019-03-21T13:08:01.584Z,31.50
2019-03-21T13:10:29.467Z,31.40
2019-03-21T13:12:57.357Z,31.10
2019-03-21T13:15:30.098Z,31.00
2019-03-21T13:17:55.803Z,30.70
2019-03-21T13:20:25.724Z,31.00
2019-03-21T13:23:02.587Z,30.60
2019-03-21T13:25:30.467Z,29.90
2019-03-21T13:28:01.446Z,29.60
2019-03-21T13:30:38.291Z,30.10
2019-03-21T13:33:06.180Z,29.80
2019-03-21T13:35:41.973Z,29.60
2019-03-21T13:38:11.843Z,30.20
2019-03-21T13:40:40.702Z,29.20
2019-03-21T13:43:11.127Z,30.00
2019-03-21T13:45:41.282Z,30.00
2019-03-21T13:51:04.531Z,30.40
2019-03-21T13:53:39.133Z,29.60
2019-03-21T13:56:10.087Z,30.10
2019-03-21T13:58:37.976Z,30.80
2019-03-21T14:01:11.660Z,29.70
2019-03-21T14:03:41.460Z,30.30
2019-03-21T14:06:21.513Z,31.20
2019-03-21T14:08:49.407Z,30.50
2019-03-21T14:11:19.483Z,29.90
2019-03-21T14:13:47.472Z,29.80
2019-03-21T14:16:15.462Z,29.90
2019-03-21T14:18:43.341Z,29.70
2019-03-21T14:21:18.981Z,30.20
2019-03-21T14:23:55.802Z,29.90
2019-03-21T14:26:28.718Z,29.60
2019-03-21T14:29:12.105Z,29.60
2019-03-21T14:31:33.304Z,29.50
2019-03-21T14:34:11.165Z,29.50
2019-03-21T14:36:39.127Z,30.20
2019-03-21T14:39:26.443Z,29.60
2019-03-21T14:41:54.336Z,29.50
2019-03-21T14:44:22.226Z,29.80
2019-03-21T14:46:50.120Z,28.70
2019-03-21T14:49:18.013Z,28.90
2019-03-21T14:51:45.978Z,29.40
2019-03-21T14:54:13.942Z,28.70
2019-03-21T14:56:41.831Z,29.40
2019-03-21T14:59:09.741Z,29.20
2019-03-21T15:01:37.621Z,29.00
2019-03-21T15:04:05.518Z,29.20
2019-03-21T15:06:33.405Z,29.60
2019-03-21T15:09:01.307Z,29.10
2019-03-21T15:11:29.292Z,28.30
2019-03-21T15:13:57.221Z,28.30
2019-03-21T15:16:25.121Z,28.80
2019-03-21T15:18:53.045Z,28.10
2019-03-21T15:21:20.920Z,28.20
2019-03-21T15:23:58.822Z,28.30
2019-03-21T15:26:18.406Z,28.60
2019-03-21T15:28:46.320Z,28.10
2019-03-21T15:31:14.209Z,28.60
2019-03-21T15:33:42.109Z,29.00
2019-03-21T15:36:10.016Z,29.20
2019-03-21T15:38:37.921Z,28.50
2019-03-21T15:41:05.804Z,28.50
2019-03-21T15:43:33.715Z,28.80
2019-03-21T15:46:01.606Z,28.70
2019-03-21T15:48:29.613Z,28.60
2019-03-21T15:51:04.428Z,28.00
2019-03-21T15:53:27.106Z,28.70
2019-03-21T15:55:55.075Z,28.80
2019-03-21T15:58:22.983Z,28.90
2019-03-21T16:00:50.937Z,28.80
2019-03-21T16:03:18.851Z,29.20
2019-03-21T16:05:46.739Z,28.80
2019-03-21T16:08:14.654Z,29.00
2019-03-21T16:10:42.581Z,28.40
2019-03-21T16:13:10.611Z,28.00
2019-03-21T16:15:38.535Z,29.00
2019-03-21T16:18:06.518Z,28.70
2019-03-21T16:20:34.555Z,28.10
2019-03-21T16:23:02.834Z,28.50
2019-03-21T16:25:30.740Z,27.70
2019-03-21T16:27:58.698Z,27.70
2019-03-21T16:30:26.599Z,28.50
2019-03-21T16:32:54.485Z,28.70
2019-03-21T16:35:22.390Z,27.70
2019-03-21T16:37:50.440Z,27.70
2019-03-21T16:40:18.381Z,27.90
2019-03-21T16:42:46.293Z,27.80
2019-03-21T16:45:14.567Z,28.20
2019-03-21T16:47:42.462Z,28.00
2019-03-21T16:50:11.053Z,28.00
2019-03-21T16:52:39.021Z,28.30
2019-03-21T16:55:07.590Z,28.10
2019-03-21T16:57:35.593Z,28.10
2019-03-21T17:00:08.181Z,28.00
2019-03-21T17:02:36.071Z,28.20
2019-03-21T17:05:05.642Z,27.80
2019-03-21T17:07:33.547Z,27.80
2019-03-21T17:10:01.501Z,28.00
2019-03-21T17:12:29.814Z,28.20
2019-03-21T17:14:57.727Z,28.00
2019-03-21T17:17:25.706Z,28.00
2019-03-21T17:19:53.690Z,28.10
2019-03-21T17:22:21.585Z,28.00
2019-03-21T17:24:49.528Z,27.90
2019-03-21T17:27:17.495Z,27.90
2019-03-21T17:29:45.494Z,28.00
2019-03-21T17:32:13.464Z,28.30
2019-03-21T17:34:41.385Z,28.50
2019-03-21T17:37:09.285Z,28.50
2019-03-21T17:39:37.207Z,28.20
2019-03-21T17:42:05.197Z,28.30
2019-03-21T17:44:33.116Z,29.20
2019-03-21T17:47:01.013Z,27.90
2019-03-21T17:49:28.929Z,28.60
2019-03-21T17:51:56.838Z,29.00
2019-03-21T17:54:24.774Z,28.90
2019-03-21T17:56:52.673Z,29.60
2019-03-21T17:59:20.608Z,29.90
2019-03-21T18:01:48.573Z,30.60
2019-03-21T18:04:16.498Z,30.90
2019-03-21T18:06:44.477Z,31.90
2019-03-21T18:09:12.360Z,32.30
2019-03-21T18:11:40.260Z,32.20
2019-03-21T18:14:08.178Z,32.90
2019-03-21T18:16:36.169Z,32.90
2019-03-21T18:19:04.116Z,33.80
2019-03-21T18:21:32.123Z,33.90
2019-03-21T18:24:00.060Z,33.90
2019-03-21T18:26:27.961Z,33.80
2019-03-21T18:28:56.109Z,33.80
2019-03-21T18:31:24.668Z,34.60
2019-03-21T18:33:54.120Z,34.00
2019-03-21T18:36:23.994Z,33.50
2019-03-21T18:38:59.332Z,33.50
2019-03-21T18:41:24.877Z,34.10
2019-03-21T18:43:55.781Z,34.70
2019-03-21T18:46:24.846Z,33.40
2019-03-21T18:48:54.078Z,34.10
2019-03-21T18:51:22.913Z,34.00
2019-03-21T18:53:52.025Z,34.00
2019-03-21T18:56:21.379Z,34.40
2019-03-21T18:58:49.899Z,35.00
2019-03-21T19:01:19.160Z,35.80
2019-03-21T19:03:47.069Z,36.10
2019-03-21T19:06:15.052Z,36.00
2019-03-21T19:08:42.961Z,35.80
2019-03-21T19:11:10.905Z,36.20
2019-03-21T19:13:38.883Z,35.70
2019-03-21T19:16:08.480Z,36.00
2019-03-21T19:18:36.501Z,35.90
2019-03-21T19:21:04.486Z,35.80
2019-03-21T19:23:32.394Z,36.20
2019-03-21T19:26:00.330Z,36.70
2019-03-21T19:28:47.651Z,37.10
2019-03-21T19:31:15.604Z,37.60
2019-03-21T19:33:43.550Z,38.00
2019-03-21T19:36:11.481Z,37.20
2019-03-21T19:38:39.515Z,36.40
2019-03-21T19:41:07.520Z,36.90
2019-03-21T19:43:35.496Z,37.00
2019-03-21T19:46:03.488Z,37.70
2019-03-21T19:48:31.395Z,37.00
2019-03-21T19:50:59.392Z,37.50
2019-03-21T19:53:28.913Z,38.30
2019-03-21T19:56:08.059Z,38.50
2019-03-21T19:58:26.617Z,38.90
2019-03-21T20:00:54.524Z,39.30
2019-03-21T20:03:22.466Z,39.60
2019-03-21T20:05:59.925Z,38.60
2019-03-21T20:08:20.166Z,39.70
2019-03-21T20:10:48.087Z,38.70
2019-03-21T20:13:16.005Z,39.90
2019-03-21T20:15:44.160Z,40.80
2019-03-21T20:18:12.843Z,40.50
2019-03-21T20:20:41.017Z,40.30
2019-03-21T20:23:09.041Z,40.00
2019-03-21T20:25:43.087Z,40.20
2019-03-21T20:28:11.412Z,40.50
2019-03-21T20:30:39.129Z,40.00
2019-03-21T20:33:07.169Z,40.20
2019-03-21T20:35:35.278Z,41.20
2019-03-21T20:38:05.485Z,41.20
2019-03-21T20:40:34.795Z,41.70
2019-03-21T20:43:02.939Z,42.30
2019-03-21T20:45:30.943Z,41.60
2019-03-21T20:47:59.056Z,41.50
2019-03-21T20:50:27.086Z,43.40
2019-03-21T20:52:55.062Z,44.10
2019-03-21T20:55:22.985Z,44.80
2019-03-21T20:57:50.936Z,45.20
2019-03-21T21:00:19.467Z,45.20
2019-03-21T21:02:47.396Z,45.40
2019-03-21T21:05:15.331Z,44.90
2019-03-21T21:07:43.727Z,44.80
2019-03-21T21:10:12.140Z,45.50
2019-03-21T21:12:40.262Z,45.70
2019-03-21T21:15:10.341Z,44.70
2019-03-21T21:17:38.393Z,45.00
2019-03-21T21:20:07.898Z,45.50
2019-03-21T21:22:35.829Z,47.20
2019-03-21T21:25:04.679Z,45.50
2019-03-21T21:27:32.574Z,46.80
2019-03-21T21:30:00.516Z,47.00
2019-03-21T21:32:29.222Z,46.20
2019-03-21T21:34:58.362Z,46.80
2019-03-21T21:37:27.928Z,47.20
2019-03-21T21:39:56.354Z,47.30
2019-03-21T21:42:24.820Z,47.50
2019-03-21T21:44:52.911Z,47.60
2019-03-21T21:47:21.291Z,45.80
2019-03-21T21:49:49.657Z,47.40
2019-03-21T21:52:19.810Z,47.60
2019-03-21T21:54:49.263Z,48.00
2019-03-21T21:57:17.604Z,47.20
2019-03-21T21:59:45.679Z,47.00
2019-03-21T22:02:13.781Z,46.40
2019-03-21T22:04:41.908Z,47.40
2019-03-21T22:07:10.283Z,48.50
2019-03-21T22:09:38.301Z,49.00
2019-03-21T22:12:06.449Z,49.00
2019-03-21T22:14:35.667Z,48.20
2019-03-21T22:17:03.804Z,48.40
2019-03-21T22:19:32.147Z,48.80
2019-03-21T22:22:00.265Z,48.20
2019-03-21T22:24:28.383Z,47.70
2019-03-21T22:26:56.618Z,48.60
2019-03-21T22:29:24.976Z,48.40
2019-03-21T22:31:53.030Z,48.40
2019-03-21T22:34:21.117Z,48.70
2019-03-21T22:36:49.820Z,48.10
2019-03-21T22:39:17.968Z,47.10
2019-03-21T22:41:45.966Z,46.90
2019-03-21T22:44:13.937Z,48.30
2019-03-21T22:46:41.992Z,47.90
2019-03-21T22:49:10.001Z,47.60
2019-03-21T22:51:38.141Z,48.60
2019-03-21T22:54:06.122Z,49.30
2019-03-21T22:56:41.026Z,48.30
2019-03-21T22:59:03.801Z,48.10
2019-03-21T23:01:31.976Z,49.50
2019-03-21T23:04:02.651Z,50.20
2019-03-21T23:06:29.659Z,50.40
2019-03-21T23:08:57.687Z,50.70
2019-03-21T23:11:25.583Z,50.30
2019-03-21T23:13:53.565Z,50.10
2019-03-21T23:16:21.535Z,50.90
2019-03-21T23:18:49.711Z,49.70
2019-03-21T23:21:17.765Z,50.30
2019-03-21T23:23:45.853Z,49.80
2019-03-21T23:26:13.974Z,49.90
2019-03-21T23:28:41.962Z,49.00
2019-03-21T23:31:09.905Z,49.00
2019-03-21T23:33:37.801Z,49.50
2019-03-21T23:36:05.700Z,49.60
2019-03-21T23:38:33.632Z,49.50
2019-03-21T23:41:01.518Z,50.50
2019-03-21T23:43:29.400Z,50.40
2019-03-21T23:45:57.308Z,50.60
2019-03-21T23:48:25.223Z,51.00
2019-03-21T23:50:53.163Z,50.30
2019-03-21T23:53:21.050Z,50.30
2019-03-21T23:55:48.934Z,50.60
2019-03-21T23:58:16.877Z,51.20
